x

Southeast Bering Sea -205nm Wnw Of Dutch Harbor, Ak (46073) Wave Buoy

5:50am - Wed 30th Jul 2014 All times are UTC.

  • Sig Wave height 3.0ft
  • Swell Direction
  • Peak Period 5s
  • Average Period 5s
  • Wind
    11mph, 16mph gusts
  • Sea Temp 53°f
  • 空気 Temp 50°f
  • Sea Pressure 1023.8mb

More Historic Weather Station data

Upgrade to MSW Pro to gain access to the past 30 days of data for over 8000 Wavebouys and Weather Stations around the globe.

Join Pro

Comparision Forecast

View Surf forecast
   
Wed 07/30 5:50am 3ft 5s 5s 11 16 mph 1023.8mb 53f 50f
4:50am 2.5ft 5s 5s 11 13 mph 1023.6mb 53f 50f
3:50am 2.5ft 8s 5s 11 13 mph 1023.9mb 53f 50f
2:50am 2.5ft 8s 5s 13 16 mph 1023.8mb 53f 50f
1:50am 2.5ft 8s 5s 11 13 mph 1024.3mb 53f 50f
12:50am 2.5ft 5s 4s 11 13 mph 1024.4mb 53f 50f
Tue 07/29 11:50pm 2.5ft 5s 4s 11 16 mph 1024.4mb 52f 50f
10:50pm 2.5ft 5s 4s 11 16 mph 1024.3mb 52f 49f
9:50pm 2.5ft 5s 4s 13 18 mph 1024.1mb 52f 49f
8:50pm 2.5ft 8s 4s 16 18 mph 1024mb 52f 49f
7:50pm 2.5ft 5s 4s 13 16 mph 1024.2mb 52f 48f
6:50pm 2.5ft 5s 5s 11 13 mph 1024.4mb 52f 48f
5:50pm 2.5ft 6s 5s 13 16 mph 1024.4mb 52f 48f
4:50pm 2.5ft 6s 5s 11 13 mph 1024.4mb 52f 48f
3:50pm 2.5ft 7s 5s 11 13 mph 1024.3mb 53f 48f
2:50pm 2ft 8s 4s 11 13 mph 1024.5mb 53f 48f
1:50pm 2ft 8s 5s 11 13 mph 1024.6mb 53f 48f
12:50pm 2ft 7s 4s 11 13 mph 1024.8mb 53f 49f
11:50am 2ft 8s 4s 11 16 mph 1025.1mb 53f 49f
10:50am 2ft 8s 5s 11 16 mph 1025.3mb 53f 49f
9:50am 2ft 8s 5s 11 16 mph 1025.2mb 53f 49f
8:50am 2ft 8s 4s 9 13 mph 1025mb 53f 49f
7:50am 2ft 7s 5s 9 11 mph 1025mb 53f 49f
6:50am 2ft 8s 5s 9 13 mph 1024.7mb 53f 49f
5:50am 2ft 8s 5s 9 11 mph 1024.7mb 53f 49f
4:50am 2ft 8s 5s 11 13 mph 1024.9mb 53f 50f
3:50am 2ft 7s 6s 9 13 mph 1025.2mb 53f 49f
2:50am 2ft 8s 6s 7 11 mph 1025.5mb 53f 50f
1:50am 2ft 9s 6s 9 11 mph 1025.5mb 53f 50f
12:50am 2ft 9s 6s 7 9 mph 1025.7mb 53f 49f
Mon 07/28 11:50pm 2ft 6s 6s 7 9 mph 1025.8mb 53f 49f
10:50pm 2ft 7s 6s 4 9 mph 1026.2mb 53f 49f
9:50pm 2ft 9s 6s 7 9 mph 1026.3mb 52f 49f
8:50pm 2ft 9s 6s 4 7 mph 1026.1mb 52f 48f
7:50pm 2ft 9s 6s 7 9 mph 1026.1mb 52f 47f
6:50pm 2ft 8s 6s 4
mph
1026mb 52f 47f
5:50pm 2ft 9s 6s 4
mph
1025.7mb 52f 47f
4:50pm 2.5ft 8s 6s 2 4 mph 1025.5mb 53f 47f
3:50pm 2.5ft 8s 6s 4 7 mph 1025.4mb 53f 47f
2:50pm 2.5ft 9s 6s 4
mph
1025.5mb 53f 47f
1:50pm 2.5ft 8s 6s 2 4 mph 1025.6mb 52f 48f
12:50pm 2.5ft 7s 6s 2 7 mph 1025.6mb 53f 47f
11:50am 2.5ft 7s 6s 4 7 mph 1025.7mb 53f 48f
10:50am 2.5ft 7s 6s 2
mph
1025.9mb 53f 48f
9:50am 2.5ft 7s 6s 4 7 mph 1025.7mb 53f 49f
8:50am 2.5ft 8s 6s 4 7 mph 1025.5mb 53f 49f
7:50am 2.5ft 8s 6s 4 9 mph 1025.1mb 53f 49f
6:50am 2.5ft 8s 6s 2 4 mph 1025mb 53f 49f
5:50am 2.5ft 8s 6s 4 9 mph 1025mb 54f 49f
4:50am 3ft 8s 6s 4 7 mph 1025mb 54f 49f
3:50am 2.5ft 9s 6s 4 7 mph 1025mb 54f 49f
2:50am 2.5ft 8s 6s 4 7 mph 1025.1mb 54f 49f
1:50am 2.5ft 8s 6s  -  mph 1025.1mb 54f 49f
12:50am 3ft 9s 6s 2
mph
1025.1mb 53f 49f
Sun 07/27 11:50pm 3ft 7s 6s 2 4 mph 1025.1mb 53f 49f
10:50pm 3.5ft 7s 6s 2 4 mph 1024.8mb 52f 49f
9:50pm 3.5ft 7s 6s 7
mph
1024.7mb 52f 49f
8:50pm 3ft 8s 6s 4 7 mph 1024.5mb 52f 49f
7:50pm 3.5ft 7s 6s 7
mph
1024.4mb 52f 49f
6:50pm 3.5ft 8s 6s 4
mph
1024.1mb 52f 48f
5:50pm 3ft 8s 6s 4 7 mph 1023.9mb 52f 48f
4:50pm 3ft 7s 6s 4 7 mph 1023.8mb 52f 47f
3:50pm 3ft 7s 6s 7 9 mph 1023.8mb 52f 47f
2:50pm 2.5ft 9s 6s 4 7 mph 1023.7mb 52f 47f
1:50pm 3ft 8s 6s 4 7 mph 1023.5mb 52f 47f
12:50pm 3.5ft 8s 6s 9
mph
1023.5mb 52f 48f
11:50am 3.5ft 7s 6s 7 9 mph 1023.4mb 52f 48f
10:50am 3.5ft 7s 6s 4 9 mph 1023.4mb 52f 48f
9:50am 3.5ft 7s 6s 4
mph
1023.5mb 52f 48f
8:50am 3.5ft 7s 6s 7 9 mph 1023.2mb 52f 49f
7:50am 3.5ft 7s 6s 9
mph
1022.9mb 52f 49f
6:50am 3.5ft 7s 6s 7 9 mph 1022.4mb 52f 49f
5:50am 4ft 8s 6s 9 11 mph 1022.3mb 52f 49f
4:50am 4ft 8s 6s 9 11 mph 1022.1mb 52f 50f
3:50am 3.5ft 8s 6s 9 11 mph 1022.4mb 52f 51f
2:50am 3.5ft 7s 6s 9 11 mph 1022.5mb 52f 51f
1:50am 3.5ft 9s 6s 9
mph
1022.5mb 52f 51f
12:50am 3.5ft 8s 6s 7 9 mph 1022.8mb 52f 51f
Sat 07/26 11:50pm 4ft 8s 6s 9
mph
1022.7mb 52f 51f
10:50pm 3.5ft 8s 6s 9 11 mph 1022.6mb 52f 51f
9:50pm 4ft 9s 6s 9 11 mph 1022.7mb 52f 51f
8:50pm 4ft 8s 6s 9 11 mph 1022.6mb 51f 50f
7:50pm 4.5ft 8s 6s 11 13 mph 1022.7mb 51f 49f
6:50pm 4.5ft 9s 6s 11 16 mph 1022.5mb 51f 49f
5:50pm 4.5ft 8s 6s 11 13 mph 1022.5mb 51f 49f
4:50pm 4.5ft 8s 6s 11 13 mph 1022.3mb 51f 48f
3:50pm 4.5ft 8s 6s 13 16 mph 1022.1mb 51f 49f
2:50pm 4ft 8s 6s 9 11 mph 1022.1mb 51f 49f
1:50pm 4ft 8s 6s 11 13 mph 1022.3mb 51f 49f
12:50pm 4ft 8s 6s 11 13 mph 1022.6mb 51f 49f
11:50am 3.5ft 8s 6s 9 11 mph 1022.7mb 51f 49f
10:50am 4ft 8s 6s 9 11 mph 1023mb 51f 48f
9:50am 3.5ft 8s 6s 9 11 mph 1022.8mb 51f 49f
8:50am 4ft 8s 6s 9 11 mph 1022.9mb 51f 50f
7:50am 4.5ft 8s 6s 9 11 mph 1022.7mb 51f 49f